createdAt,value
2023-01-18T00:04:15.706Z,95351.03
2023-01-18T00:08:34.587Z,95337.28
2023-01-18T00:12:51.945Z,95328.69
2023-01-18T00:17:09.466Z,95323.19
2023-01-18T00:21:27.907Z,95311.47
2023-01-18T00:25:45.233Z,95292.91
2023-01-18T00:30:04.841Z,95286.97
2023-01-18T00:34:22.254Z,95302.66
2023-01-18T00:38:39.731Z,95301.41
2023-01-18T00:43:15.874Z,95295.13
2023-01-18T00:47:33.480Z,95303.75
2023-01-18T00:51:52.517Z,95298.75
2023-01-18T00:56:11.453Z,95309.09
2023-01-18T01:00:29.003Z,95302.53
2023-01-18T01:05:05.278Z,95310.88
2023-01-18T01:09:29.155Z,95313.13
2023-01-18T01:14:05.344Z,95294.69
2023-01-18T01:18:41.805Z,95292.16
2023-01-18T01:23:26.839Z,95291.88
2023-01-18T01:27:44.276Z,95277.72
2023-01-18T01:32:03.504Z,95268.75
2023-01-18T01:36:27.882Z,95262.09
2023-01-18T01:40:55.283Z,95286.03
2023-01-18T01:45:12.200Z,95279.66
2023-01-18T01:49:47.451Z,95268.94
2023-01-18T01:54:07.145Z,95246.75
2023-01-18T01:58:28.045Z,95249.47
2023-01-18T02:02:48.757Z,95244.19
2023-01-18T02:07:06.702Z,95234.16
2023-01-18T02:11:36.654Z,95222.97
2023-01-18T02:16:13.017Z,95223.66
2023-01-18T02:20:50.073Z,95217.78
2023-01-18T02:25:41.735Z,95219.47
2023-01-18T02:30:28.072Z,95214.19
2023-01-18T02:34:52.527Z,95218.34
2023-01-18T02:39:39.339Z,95203.72
2023-01-18T02:44:16.045Z,95190.25
2023-01-18T02:48:40.023Z,95191.84
2023-01-18T02:52:57.797Z,95190.25
2023-01-18T02:57:16.217Z,95191.84
2023-01-18T03:01:47.047Z,95191.66
2023-01-18T03:06:05.851Z,95210.97
2023-01-18T03:10:27.078Z,95197.22
2023-01-18T03:14:56.738Z,95204.31
2023-01-18T03:19:37.792Z,95207.97
2023-01-18T03:23:55.412Z,95223.47
2023-01-18T03:28:48.783Z,95221.75
2023-01-18T03:33:25.793Z,95221.09
2023-01-18T03:37:45.569Z,95212.75
2023-01-18T03:42:12.157Z,95221.03
2023-01-18T03:46:32.056Z,95204.00
2023-01-18T03:50:53.481Z,95198.34
2023-01-18T03:55:49.195Z,95181.97
2023-01-18T04:00:08.792Z,95174.16
2023-01-18T04:04:26.205Z,95134.41
2023-01-18T04:08:43.601Z,95116.03
2023-01-18T04:13:01.511Z,95106.50
2023-01-18T04:17:19.916Z,95110.63
2023-01-18T04:21:38.673Z,95120.72
2023-01-18T04:25:56.127Z,95095.44
2023-01-18T04:30:13.800Z,95100.63
2023-01-18T04:34:32.199Z,95104.78
2023-01-18T04:38:54.199Z,95134.59
2023-01-18T04:43:11.679Z,95116.97
2023-01-18T04:47:31.593Z,95078.19
2023-01-18T04:51:49.381Z,95107.34
2023-01-18T04:56:07.032Z,95105.59
2023-01-18T05:00:24.323Z,95104.13
2023-01-18T05:04:42.268Z,95119.66
2023-01-18T05:08:59.584Z,95117.53
2023-01-18T05:13:17.165Z,95108.44
2023-01-18T05:17:35.288Z,95122.09
2023-01-18T05:21:52.871Z,95098.19
2023-01-18T05:26:19.216Z,95107.84
2023-01-18T05:30:42.204Z,95111.41
2023-01-18T05:34:59.567Z,95104.00
2023-01-18T05:39:16.993Z,95126.44
2023-01-18T05:43:35.794Z,95150.84
2023-01-18T05:47:55.268Z,95142.81
2023-01-18T05:52:12.637Z,95138.72
2023-01-18T05:56:31.292Z,95158.38
2023-01-18T06:00:48.814Z,95154.72
2023-01-18T06:05:06.771Z,95160.03
2023-01-18T06:09:24.141Z,95157.56
2023-01-18T06:13:41.921Z,95150.72
2023-01-18T06:18:00.125Z,95155.72
2023-01-18T06:22:17.701Z,95128.75
2023-01-18T06:26:35.041Z,95135.09
2023-01-18T06:30:54.056Z,95130.78
2023-01-18T06:35:11.550Z,95128.13
2023-01-18T06:39:29.399Z,95135.25
2023-01-18T06:43:46.777Z,95132.44
2023-01-18T06:48:04.422Z,95145.84
2023-01-18T06:52:21.799Z,95153.25
2023-01-18T06:56:40.263Z,95156.66
2023-01-18T07:00:59.297Z,95149.06
2023-01-18T07:05:17.029Z,95158.69
2023-01-18T07:09:34.496Z,95151.97
2023-01-18T07:13:54.110Z,95158.81
2023-01-18T07:18:11.484Z,95163.50
2023-01-18T07:22:28.940Z,95185.69
2023-01-18T07:26:46.326Z,95182.78
2023-01-18T07:31:05.126Z,95182.25
2023-01-18T07:35:22.530Z,95189.75
2023-01-18T07:39:40.027Z,95191.34
2023-01-18T07:43:57.348Z,95199.59
2023-01-18T07:48:15.871Z,95184.81
2023-01-18T07:52:33.299Z,95175.38
2023-01-18T07:56:50.808Z,95170.34
2023-01-18T08:01:14.343Z,95174.03
2023-01-18T08:05:32.458Z,95156.06
2023-01-18T08:09:50.276Z,95160.03
2023-01-18T08:14:07.959Z,95178.22
2023-01-18T08:18:25.319Z,95193.84
2023-01-18T08:22:42.855Z,95199.00
2023-01-18T08:27:00.163Z,95191.50
2023-01-18T08:31:20.300Z,95170.63
2023-01-18T08:35:47.788Z,95170.19
2023-01-18T08:40:05.784Z,95174.34
2023-01-18T08:44:23.386Z,95169.81
2023-01-18T08:48:59.619Z,95196.63
2023-01-18T08:53:36.019Z,95224.50
2023-01-18T08:57:59.478Z,95232.06
2023-01-18T09:02:17.225Z,95222.84
2023-01-18T09:06:34.771Z,95224.91
2023-01-18T09:10:52.155Z,95247.09
2023-01-18T09:15:13.098Z,95224.91
2023-01-18T09:19:30.649Z,95218.75
2023-01-18T09:23:49.146Z,95221.00
2023-01-18T09:28:06.691Z,95205.13
2023-01-18T09:32:25.621Z,95207.72
2023-01-18T09:36:43.177Z,95207.22
2023-01-18T09:41:00.738Z,95218.75
2023-01-18T09:45:29.511Z,95239.53
2023-01-18T09:50:14.947Z,95228.38
2023-01-18T09:54:49.680Z,95249.56
2023-01-18T09:59:33.798Z,95277.25
2023-01-18T10:03:55.817Z,95257.81
2023-01-18T10:08:16.755Z,95257.66
2023-01-18T10:12:40.826Z,95278.47
2023-01-18T10:17:02.748Z,95299.22
2023-01-18T10:21:47.760Z,95318.13
2023-01-18T10:26:12.517Z,95311.34
2023-01-18T10:30:33.076Z,95296.63
2023-01-18T10:34:51.995Z,95301.50
2023-01-18T10:39:35.133Z,95309.19
2023-01-18T10:43:52.474Z,95307.69
2023-01-18T10:48:18.731Z,95329.69
2023-01-18T10:52:36.242Z,95352.16
2023-01-18T10:57:03.302Z,95346.06
2023-01-18T11:01:31.846Z,95347.66
2023-01-18T11:05:49.809Z,95360.81
2023-01-18T11:10:24.309Z,95361.00
2023-01-18T11:14:42.134Z,95359.88
2023-01-18T11:19:00.003Z,95372.22
2023-01-18T11:23:35.996Z,95375.28
2023-01-18T11:28:00.980Z,95376.38
2023-01-18T11:32:25.692Z,95377.28
2023-01-18T11:36:45.100Z,95396.97
2023-01-18T11:41:14.481Z,95397.38
2023-01-18T11:45:35.982Z,95401.69
2023-01-18T11:50:21.571Z,95416.88
2023-01-18T11:54:50.043Z,95429.09
2023-01-18T11:59:16.164Z,95428.47
2023-01-18T12:03:42.871Z,95414.25
2023-01-18T12:08:03.352Z,95428.47
2023-01-18T12:12:26.735Z,95446.66
2023-01-18T12:16:44.242Z,95453.41
2023-01-18T12:21:13.308Z,95452.38
2023-01-18T12:26:11.909Z,95455.94
2023-01-18T12:30:43.264Z,95468.81
2023-01-18T12:35:23.787Z,95479.28
2023-01-18T12:39:53.463Z,95487.81
2023-01-18T12:44:47.497Z,95506.34
2023-01-18T12:49:19.078Z,95516.16
2023-01-18T12:53:59.515Z,95527.31
2023-01-18T12:58:25.472Z,95542.03
2023-01-18T13:02:45.883Z,95557.72
2023-01-18T13:07:07.545Z,95563.06
2023-01-18T13:11:35.759Z,95583.47
2023-01-18T13:15:59.390Z,95601.19
2023-01-18T13:20:26.436Z,95606.75
2023-01-18T13:24:47.193Z,95619.25
2023-01-18T13:29:20.333Z,95623.00
2023-01-18T13:33:45.099Z,95635.53
2023-01-18T13:38:13.958Z,95639.16
2023-01-18T13:42:38.277Z,95661.88
2023-01-18T13:46:59.415Z,95680.63
2023-01-18T13:51:39.450Z,95678.09
2023-01-18T13:56:00.517Z,95684.66
2023-01-18T14:00:25.623Z,95695.91
2023-01-18T14:04:43.481Z,95703.88
2023-01-18T14:09:14.785Z,95717.25
2023-01-18T14:13:59.256Z,95725.59
2023-01-18T14:18:28.593Z,95745.25
2023-01-18T14:23:34.249Z,95759.94
2023-01-18T14:28:14.963Z,95772.38
2023-01-18T14:32:39.461Z,95785.50
2023-01-18T14:36:57.879Z,95789.47
2023-01-18T14:41:17.604Z,95783.19
2023-01-18T14:45:37.516Z,95792.88
2023-01-18T14:49:56.013Z,95791.94
2023-01-18T14:54:17.187Z,95808.41
2023-01-18T14:58:42.546Z,95808.16
2023-01-18T15:03:01.370Z,95824.19
2023-01-18T15:07:24.450Z,95839.28
2023-01-18T15:11:42.752Z,95835.66
2023-01-18T15:16:02.337Z,95837.66
2023-01-18T15:20:19.931Z,95847.53
2023-01-18T15:24:40.178Z,95858.00
2023-01-18T15:29:08.839Z,95874.97
2023-01-18T15:33:27.379Z,95893.78
2023-01-18T15:58:56.873Z,95932.47
2023-01-18T16:03:54.206Z,95951.91
2023-01-18T16:08:22.803Z,95952.38
2023-01-18T16:12:40.700Z,95956.53
2023-01-18T16:17:04.719Z,95949.75
2023-01-18T16:21:42.022Z,95944.56
2023-01-18T16:26:04.896Z,95940.41
2023-01-18T16:30:28.014Z,95958.03
2023-01-18T16:34:45.588Z,95978.78
2023-01-18T16:39:03.304Z,95993.28
2023-01-18T16:43:29.538Z,95999.47
2023-01-18T16:47:47.360Z,96014.25
2023-01-18T16:52:07.439Z,96028.75
2023-01-18T16:56:24.968Z,96032.09
2023-01-18T17:00:59.582Z,96043.03
2023-01-18T17:05:17.923Z,96055.13
2023-01-18T17:09:47.116Z,96077.41
2023-01-18T17:14:05.328Z,96086.66
2023-01-18T17:18:25.982Z,96104.06
2023-01-18T17:22:43.795Z,96099.34
2023-01-18T17:27:04.264Z,96124.72
2023-01-18T17:31:21.979Z,96132.00
2023-01-18T17:35:39.448Z,96126.75
2023-01-18T17:40:12.225Z,96132.19
2023-01-18T17:44:37.353Z,96126.56
2023-01-18T17:48:55.825Z,96127.22
2023-01-18T17:53:16.434Z,96130.97
2023-01-18T17:57:34.646Z,96138.63
2023-01-18T18:01:52.354Z,96150.84
2023-01-18T18:06:11.205Z,96161.84
2023-01-18T18:10:31.246Z,96160.66
2023-01-18T18:14:51.817Z,96172.78
2023-01-18T18:19:09.303Z,96181.59
2023-01-18T18:23:28.301Z,96190.09
2023-01-18T18:27:46.866Z,96188.00
2023-01-18T18:32:06.609Z,96187.31
2023-01-18T18:36:27.480Z,96197.09
2023-01-18T18:40:46.088Z,96192.88
2023-01-18T18:45:03.795Z,96199.88
2023-01-18T18:49:21.466Z,96208.66
2023-01-18T18:53:39.841Z,96214.59
2023-01-18T18:57:58.492Z,96214.63
2023-01-18T19:02:16.550Z,96219.78
2023-01-18T19:06:35.439Z,96218.25
2023-01-18T19:10:57.387Z,96222.16
2023-01-18T19:15:15.026Z,96245.72
2023-01-18T19:19:32.832Z,96267.00
2023-01-18T19:23:50.530Z,96275.66
2023-01-18T19:28:08.603Z,96277.44
2023-01-18T19:32:26.566Z,96284.72
2023-01-18T19:36:44.503Z,96293.28
2023-01-18T19:41:03.323Z,96297.03
2023-01-18T19:45:27.956Z,96293.94
2023-01-18T19:49:46.562Z,96308.16
2023-01-18T19:54:04.950Z,96315.66
2023-01-18T19:58:22.597Z,96333.72
2023-01-18T20:02:41.522Z,96339.38
2023-01-18T20:06:59.400Z,96333.91
2023-01-18T20:11:16.494Z,96327.94
2023-01-18T20:15:33.937Z,96341.91
2023-01-18T20:19:54.307Z,96348.91
2023-01-18T20:24:11.848Z,96347.81
2023-01-18T20:28:29.982Z,96350.41
2023-01-18T20:32:47.585Z,96362.25
2023-01-18T20:37:05.879Z,96389.81
2023-01-18T20:41:23.360Z,96396.59
2023-01-18T20:45:40.910Z,96395.00
2023-01-18T20:49:58.386Z,96392.41
2023-01-18T20:54:16.815Z,96404.25
2023-01-18T20:58:34.617Z,96401.91
2023-01-18T21:02:52.188Z,96405.75
2023-01-18T21:07:09.868Z,96403.16
2023-01-18T21:11:28.180Z,96415.00
2023-01-18T21:15:46.724Z,96410.41
2023-01-18T21:20:04.641Z,96413.69
2023-01-18T21:24:22.309Z,96419.09
2023-01-18T21:28:40.459Z,96413.91
2023-01-18T21:32:58.134Z,96422.94
2023-01-18T21:37:15.862Z,96429.38
2023-01-18T21:41:52.330Z,96429.13
2023-01-18T21:46:11.501Z,96445.34
2023-01-18T21:50:48.307Z,96457.97
2023-01-18T21:55:06.021Z,96459.31
2023-01-18T21:59:23.675Z,96465.41
2023-01-18T22:03:41.681Z,96474.97
2023-01-18T22:07:59.516Z,96489.69
2023-01-18T22:12:17.312Z,96518.38
2023-01-18T22:16:35.177Z,96535.13
2023-01-18T22:20:56.618Z,96536.38
2023-01-18T22:25:14.214Z,96533.00
2023-01-18T22:29:32.018Z,96533.47
2023-01-18T22:33:49.845Z,96529.56
2023-01-18T22:38:07.612Z,96534.47
2023-01-18T22:42:25.426Z,96545.31
2023-01-18T22:46:43.363Z,96552.28
2023-01-18T22:51:02.066Z,96556.88
2023-01-18T22:55:19.516Z,96561.59
2023-01-18T22:59:37.319Z,96572.63
2023-01-18T23:04:08.977Z,96574.19
2023-01-18T23:08:42.643Z,96571.59
2023-01-18T23:13:01.151Z,96585.31
2023-01-18T23:17:37.333Z,96586.25
2023-01-18T23:21:55.936Z,96574.31
2023-01-18T23:26:13.447Z,96579.50
2023-01-18T23:30:32.860Z,96577.69
2023-01-18T23:34:50.500Z,96580.28
2023-01-18T23:39:26.947Z,96573.53
2023-01-18T23:44:02.941Z,96584.44
2023-01-18T23:48:39.745Z,96588.97
2023-01-18T23:53:19.536Z,96587.16
2023-01-18T23:57:37.232Z,96580.63
